sensor_id;sensor_type;location;lat;lon;timestamp;P1;durP1;ratioP1;P2;durP2;ratioP2
29196;SDS011;62796;42.654;23.316;2023-02-15T00:01:49;62.10;;;32.58;;
29196;SDS011;62796;42.654;23.316;2023-02-15T00:04:16;60.13;;;30.73;;
29196;SDS011;62796;42.654;23.316;2023-02-15T00:06:43;59.22;;;32.00;;
29196;SDS011;62796;42.654;23.316;2023-02-15T00:09:09;61.80;;;33.33;;
29196;SDS011;62796;42.654;23.316;2023-02-15T00:11:35;59.22;;;31.52;;
29196;SDS011;62796;42.654;23.316;2023-02-15T00:14:30;60.55;;;32.45;;
29196;SDS011;62796;42.654;23.316;2023-02-15T00:16:55;59.47;;;32.25;;
29196;SDS011;62796;42.654;23.316;2023-02-15T00:19:32;60.42;;;32.05;;
29196;SDS011;62796;42.654;23.316;2023-02-15T00:21:58;57.92;;;30.65;;
29196;SDS011;62796;42.654;23.316;2023-02-15T00:24:23;56.95;;;32.33;;
29196;SDS011;62796;42.654;23.316;2023-02-15T00:26:49;55.15;;;31.15;;
29196;SDS011;62796;42.654;23.316;2023-02-15T00:29:15;59.75;;;31.70;;
29196;SDS011;62796;42.654;23.316;2023-02-15T00:31:42;58.20;;;31.25;;
29196;SDS011;62796;42.654;23.316;2023-02-15T00:34:10;57.55;;;30.90;;
29196;SDS011;62796;42.654;23.316;2023-02-15T00:36:38;58.05;;;31.73;;
29196;SDS011;62796;42.654;23.316;2023-02-15T00:39:04;53.30;;;29.45;;
29196;SDS011;62796;42.654;23.316;2023-02-15T00:41:30;53.53;;;30.08;;
29196;SDS011;62796;42.654;23.316;2023-02-15T00:43:56;54.10;;;30.42;;
29196;SDS011;62796;42.654;23.316;2023-02-15T00:46:22;55.67;;;30.50;;
29196;SDS011;62796;42.654;23.316;2023-02-15T00:48:47;49.45;;;28.30;;
29196;SDS011;62796;42.654;23.316;2023-02-15T00:51:13;59.67;;;32.03;;
29196;SDS011;62796;42.654;23.316;2023-02-15T00:53:38;56.22;;;30.27;;
29196;SDS011;62796;42.654;23.316;2023-02-15T00:56:04;54.70;;;30.77;;
29196;SDS011;62796;42.654;23.316;2023-02-15T00:58:29;55.15;;;29.65;;
29196;SDS011;62796;42.654;23.316;2023-02-15T01:00:54;56.92;;;30.60;;
29196;SDS011;62796;42.654;23.316;2023-02-15T01:03:26;57.67;;;30.73;;
29196;SDS011;62796;42.654;23.316;2023-02-15T01:05:52;55.40;;;30.23;;
29196;SDS011;62796;42.654;23.316;2023-02-15T01:08:17;54.22;;;29.60;;
29196;SDS011;62796;42.654;23.316;2023-02-15T01:10:43;51.25;;;28.60;;
29196;SDS011;62796;42.654;23.316;2023-02-15T01:13:10;55.13;;;29.75;;
29196;SDS011;62796;42.654;23.316;2023-02-15T01:15:36;54.58;;;30.02;;
29196;SDS011;62796;42.654;23.316;2023-02-15T01:18:01;53.40;;;30.13;;
29196;SDS011;62796;42.654;23.316;2023-02-15T01:20:27;53.95;;;29.40;;
29196;SDS011;62796;42.654;23.316;2023-02-15T01:22:54;53.78;;;30.02;;
29196;SDS011;62796;42.654;23.316;2023-02-15T01:25:21;53.22;;;29.75;;
29196;SDS011;62796;42.654;23.316;2023-02-15T01:27:48;54.55;;;31.10;;
29196;SDS011;62796;42.654;23.316;2023-02-15T01:30:13;53.08;;;29.40;;
29196;SDS011;62796;42.654;23.316;2023-02-15T01:32:39;52.25;;;29.75;;
29196;SDS011;62796;42.654;23.316;2023-02-15T01:35:06;53.45;;;30.30;;
29196;SDS011;62796;42.654;23.316;2023-02-15T01:37:32;48.92;;;27.75;;
29196;SDS011;62796;42.654;23.316;2023-02-15T01:40:00;53.00;;;30.05;;
29196;SDS011;62796;42.654;23.316;2023-02-15T01:42:27;52.08;;;28.23;;
29196;SDS011;62796;42.654;23.316;2023-02-15T01:44:57;53.80;;;29.13;;
29196;SDS011;62796;42.654;23.316;2023-02-15T01:58:49;54.25;;;29.88;;
29196;SDS011;62796;42.654;23.316;2023-02-15T02:01:18;57.17;;;30.67;;
29196;SDS011;62796;42.654;23.316;2023-02-15T02:06:44;50.55;;;29.50;;
29196;SDS011;62796;42.654;23.316;2023-02-15T02:09:12;53.58;;;28.42;;
29196;SDS011;62796;42.654;23.316;2023-02-15T02:11:39;57.15;;;29.42;;
29196;SDS011;62796;42.654;23.316;2023-02-15T02:14:05;51.70;;;28.25;;
29196;SDS011;62796;42.654;23.316;2023-02-15T02:17:16;52.53;;;28.33;;
29196;SDS011;62796;42.654;23.316;2023-02-15T02:19:39;50.38;;;28.02;;
29196;SDS011;62796;42.654;23.316;2023-02-15T02:33:40;56.30;;;30.42;;
29196;SDS011;62796;42.654;23.316;2023-02-15T02:44:31;47.60;;;27.50;;
29196;SDS011;62796;42.654;23.316;2023-02-15T02:47:00;49.50;;;27.67;;
29196;SDS011;62796;42.654;23.316;2023-02-15T02:49:39;48.47;;;26.60;;
29196;SDS011;62796;42.654;23.316;2023-02-15T02:52:31;49.20;;;27.15;;
29196;SDS011;62796;42.654;23.316;2023-02-15T02:55:01;49.50;;;27.20;;
29196;SDS011;62796;42.654;23.316;2023-02-15T02:57:29;50.28;;;27.40;;
29196;SDS011;62796;42.654;23.316;2023-02-15T02:59:57;50.95;;;28.42;;
29196;SDS011;62796;42.654;23.316;2023-02-15T03:02:29;49.05;;;27.02;;
29196;SDS011;62796;42.654;23.316;2023-02-15T03:05:02;50.40;;;27.27;;
29196;SDS011;62796;42.654;23.316;2023-02-15T03:07:31;50.47;;;27.20;;
29196;SDS011;62796;42.654;23.316;2023-02-15T03:10:02;48.42;;;27.42;;
29196;SDS011;62796;42.654;23.316;2023-02-15T03:12:34;50.60;;;27.33;;
29196;SDS011;62796;42.654;23.316;2023-02-15T03:15:06;50.38;;;26.20;;
29196;SDS011;62796;42.654;23.316;2023-02-15T03:17:36;47.63;;;26.65;;
29196;SDS011;62796;42.654;23.316;2023-02-15T03:20:09;47.17;;;26.27;;
29196;SDS011;62796;42.654;23.316;2023-02-15T03:22:40;47.47;;;26.30;;
29196;SDS011;62796;42.654;23.316;2023-02-15T03:25:13;45.63;;;25.73;;
29196;SDS011;62796;42.654;23.316;2023-02-15T03:27:45;45.47;;;26.90;;
29196;SDS011;62796;42.654;23.316;2023-02-15T03:30:13;46.80;;;25.50;;
29196;SDS011;62796;42.654;23.316;2023-02-15T03:32:43;44.72;;;25.75;;
29196;SDS011;62796;42.654;23.316;2023-02-15T03:35:10;43.17;;;24.95;;
29196;SDS011;62796;42.654;23.316;2023-02-15T03:37:44;45.10;;;25.08;;
29196;SDS011;62796;42.654;23.316;2023-02-15T03:43:15;50.30;;;25.75;;
29196;SDS011;62796;42.654;23.316;2023-02-15T03:45:45;45.10;;;24.45;;
29196;SDS011;62796;42.654;23.316;2023-02-15T03:48:24;45.60;;;24.83;;
29196;SDS011;62796;42.654;23.316;2023-02-15T03:50:55;47.25;;;25.65;;
29196;SDS011;62796;42.654;23.316;2023-02-15T03:53:44;49.05;;;25.15;;
29196;SDS011;62796;42.654;23.316;2023-02-15T03:56:12;46.65;;;26.23;;
29196;SDS011;62796;42.654;23.316;2023-02-15T03:58:37;46.53;;;26.13;;
29196;SDS011;62796;42.654;23.316;2023-02-15T04:04:18;47.30;;;25.20;;
29196;SDS011;62796;42.654;23.316;2023-02-15T04:06:45;46.42;;;24.65;;
29196;SDS011;62796;42.654;23.316;2023-02-15T04:09:11;44.85;;;25.33;;
29196;SDS011;62796;42.654;23.316;2023-02-15T04:11:57;41.53;;;24.23;;
29196;SDS011;62796;42.654;23.316;2023-02-15T04:14:22;43.53;;;25.20;;
29196;SDS011;62796;42.654;23.316;2023-02-15T04:17:06;44.10;;;24.85;;
29196;SDS011;62796;42.654;23.316;2023-02-15T04:19:33;43.92;;;24.50;;
29196;SDS011;62796;42.654;23.316;2023-02-15T04:22:17;49.90;;;25.95;;
29196;SDS011;62796;42.654;23.316;2023-02-15T04:25:01;44.30;;;25.90;;
29196;SDS011;62796;42.654;23.316;2023-02-15T04:27:39;43.40;;;26.15;;
29196;SDS011;62796;42.654;23.316;2023-02-15T04:30:06;45.10;;;25.58;;
29196;SDS011;62796;42.654;23.316;2023-02-15T04:32:32;46.28;;;24.95;;
29196;SDS011;62796;42.654;23.316;2023-02-15T04:34:58;42.00;;;25.70;;
29196;SDS011;62796;42.654;23.316;2023-02-15T04:37:23;45.63;;;26.45;;
29196;SDS011;62796;42.654;23.316;2023-02-15T04:39:49;45.58;;;26.08;;
29196;SDS011;62796;42.654;23.316;2023-02-15T04:42:15;45.10;;;25.80;;
29196;SDS011;62796;42.654;23.316;2023-02-15T04:44:40;47.70;;;25.60;;
29196;SDS011;62796;42.654;23.316;2023-02-15T04:47:05;46.67;;;26.83;;
29196;SDS011;62796;42.654;23.316;2023-02-15T04:49:31;45.17;;;25.75;;
29196;SDS011;62796;42.654;23.316;2023-02-15T04:51:56;48.85;;;26.27;;
29196;SDS011;62796;42.654;23.316;2023-02-15T04:54:22;47.58;;;26.30;;
29196;SDS011;62796;42.654;23.316;2023-02-15T04:56:47;45.78;;;25.70;;
29196;SDS011;62796;42.654;23.316;2023-02-15T04:59:12;47.13;;;25.90;;
29196;SDS011;62796;42.654;23.316;2023-02-15T05:01:38;46.22;;;26.83;;
29196;SDS011;62796;42.654;23.316;2023-02-15T05:04:03;45.03;;;25.65;;
29196;SDS011;62796;42.654;23.316;2023-02-15T05:06:29;46.20;;;26.55;;
29196;SDS011;62796;42.654;23.316;2023-02-15T05:08:54;53.00;;;28.35;;
29196;SDS011;62796;42.654;23.316;2023-02-15T05:11:20;46.70;;;25.83;;
29196;SDS011;62796;42.654;23.316;2023-02-15T05:13:46;51.75;;;26.90;;
29196;SDS011;62796;42.654;23.316;2023-02-15T05:16:11;49.90;;;26.17;;
29196;SDS011;62796;42.654;23.316;2023-02-15T05:18:36;45.22;;;26.88;;
29196;SDS011;62796;42.654;23.316;2023-02-15T05:21:02;47.00;;;26.92;;
29196;SDS011;62796;42.654;23.316;2023-02-15T05:23:28;48.08;;;26.33;;
29196;SDS011;62796;42.654;23.316;2023-02-15T05:25:53;47.67;;;27.52;;
29196;SDS011;62796;42.654;23.316;2023-02-15T05:28:37;43.80;;;25.60;;
29196;SDS011;62796;42.654;23.316;2023-02-15T05:33:28;54.33;;;27.05;;
29196;SDS011;62796;42.654;23.316;2023-02-15T05:35:53;52.53;;;26.83;;
29196;SDS011;62796;42.654;23.316;2023-02-15T05:38:19;47.10;;;26.98;;
29196;SDS011;62796;42.654;23.316;2023-02-15T05:40:44;49.45;;;27.30;;
29196;SDS011;62796;42.654;23.316;2023-02-15T05:43:09;46.65;;;25.98;;
29196;SDS011;62796;42.654;23.316;2023-02-15T05:45:35;46.15;;;25.40;;
29196;SDS011;62796;42.654;23.316;2023-02-15T05:48:00;45.33;;;25.77;;
29196;SDS011;62796;42.654;23.316;2023-02-15T05:50:26;46.17;;;25.85;;
29196;SDS011;62796;42.654;23.316;2023-02-15T05:52:51;50.15;;;25.67;;
29196;SDS011;62796;42.654;23.316;2023-02-15T05:55:17;46.70;;;26.85;;
29196;SDS011;62796;42.654;23.316;2023-02-15T05:57:43;47.67;;;27.05;;
29196;SDS011;62796;42.654;23.316;2023-02-15T06:00:08;49.55;;;26.95;;
29196;SDS011;62796;42.654;23.316;2023-02-15T06:02:38;46.55;;;26.33;;
29196;SDS011;62796;42.654;23.316;2023-02-15T06:05:04;47.70;;;26.70;;
29196;SDS011;62796;42.654;23.316;2023-02-15T06:07:30;44.38;;;25.48;;
29196;SDS011;62796;42.654;23.316;2023-02-15T06:09:56;43.60;;;24.83;;
29196;SDS011;62796;42.654;23.316;2023-02-15T06:12:21;46.50;;;25.63;;
29196;SDS011;62796;42.654;23.316;2023-02-15T06:14:47;48.33;;;26.52;;
29196;SDS011;62796;42.654;23.316;2023-02-15T06:17:12;46.33;;;25.90;;
29196;SDS011;62796;42.654;23.316;2023-02-15T06:19:38;46.10;;;24.30;;
29196;SDS011;62796;42.654;23.316;2023-02-15T06:22:03;47.97;;;25.60;;
29196;SDS011;62796;42.654;23.316;2023-02-15T06:24:28;45.70;;;25.40;;
29196;SDS011;62796;42.654;23.316;2023-02-15T06:26:54;42.80;;;25.10;;
29196;SDS011;62796;42.654;23.316;2023-02-15T06:29:19;45.30;;;25.02;;
29196;SDS011;62796;42.654;23.316;2023-02-15T06:31:45;42.70;;;25.23;;
29196;SDS011;62796;42.654;23.316;2023-02-15T06:34:10;42.88;;;26.27;;
29196;SDS011;62796;42.654;23.316;2023-02-15T06:36:35;48.95;;;25.63;;
29196;SDS011;62796;42.654;23.316;2023-02-15T06:39:01;45.20;;;24.63;;
29196;SDS011;62796;42.654;23.316;2023-02-15T06:41:28;47.45;;;25.67;;
29196;SDS011;62796;42.654;23.316;2023-02-15T06:43:53;40.83;;;24.55;;
29196;SDS011;62796;42.654;23.316;2023-02-15T06:46:18;43.85;;;25.40;;
29196;SDS011;62796;42.654;23.316;2023-02-15T06:48:44;43.20;;;24.80;;
29196;SDS011;62796;42.654;23.316;2023-02-15T06:51:09;46.08;;;25.85;;
29196;SDS011;62796;42.654;23.316;2023-02-15T06:53:34;39.92;;;23.92;;
29196;SDS011;62796;42.654;23.316;2023-02-15T06:56:04;39.25;;;22.52;;
29196;SDS011;62796;42.654;23.316;2023-02-15T06:58:32;40.30;;;22.77;;
29196;SDS011;62796;42.654;23.316;2023-02-15T07:00:58;40.70;;;23.33;;
29196;SDS011;62796;42.654;23.316;2023-02-15T07:03:24;40.58;;;22.38;;
29196;SDS011;62796;42.654;23.316;2023-02-15T07:05:53;41.35;;;21.38;;
29196;SDS011;62796;42.654;23.316;2023-02-15T07:08:19;37.03;;;21.38;;
29196;SDS011;62796;42.654;23.316;2023-02-15T07:10:45;44.42;;;22.23;;
29196;SDS011;62796;42.654;23.316;2023-02-15T07:13:10;34.95;;;20.83;;
29196;SDS011;62796;42.654;23.316;2023-02-15T07:15:35;37.25;;;19.58;;
29196;SDS011;62796;42.654;23.316;2023-02-15T07:18:01;39.22;;;19.67;;
29196;SDS011;62796;42.654;23.316;2023-02-15T07:20:26;43.42;;;20.90;;
29196;SDS011;62796;42.654;23.316;2023-02-15T07:22:52;36.70;;;20.23;;
29196;SDS011;62796;42.654;23.316;2023-02-15T07:25:17;31.85;;;19.95;;
29196;SDS011;62796;42.654;23.316;2023-02-15T07:27:43;35.45;;;19.30;;
29196;SDS011;62796;42.654;23.316;2023-02-15T07:30:11;36.22;;;19.98;;
29196;SDS011;62796;42.654;23.316;2023-02-15T07:32:38;42.28;;;20.95;;
29196;SDS011;62796;42.654;23.316;2023-02-15T07:35:24;37.15;;;21.02;;
29196;SDS011;62796;42.654;23.316;2023-02-15T07:37:49;42.88;;;19.27;;
29196;SDS011;62796;42.654;23.316;2023-02-15T07:40:14;31.15;;;18.13;;
29196;SDS011;62796;42.654;23.316;2023-02-15T07:42:40;32.65;;;19.45;;
29196;SDS011;62796;42.654;23.316;2023-02-15T07:45:05;41.95;;;19.95;;
29196;SDS011;62796;42.654;23.316;2023-02-15T07:47:31;39.20;;;19.73;;
29196;SDS011;62796;42.654;23.316;2023-02-15T07:49:56;32.75;;;19.95;;
29196;SDS011;62796;42.654;23.316;2023-02-15T07:52:22;30.95;;;17.92;;
29196;SDS011;62796;42.654;23.316;2023-02-15T07:54:47;37.88;;;20.20;;
29196;SDS011;62796;42.654;23.316;2023-02-15T07:57:13;27.58;;;17.73;;
29196;SDS011;62796;42.654;23.316;2023-02-15T07:59:38;34.53;;;19.90;;
29196;SDS011;62796;42.654;23.316;2023-02-15T08:02:05;30.17;;;18.63;;
29196;SDS011;62796;42.654;23.316;2023-02-15T08:04:34;30.77;;;19.25;;
29196;SDS011;62796;42.654;23.316;2023-02-15T08:06:59;37.30;;;20.33;;
29196;SDS011;62796;42.654;23.316;2023-02-15T08:09:25;39.30;;;19.50;;
29196;SDS011;62796;42.654;23.316;2023-02-15T08:11:50;31.25;;;19.20;;
29196;SDS011;62796;42.654;23.316;2023-02-15T08:14:19;35.50;;;19.77;;
29196;SDS011;62796;42.654;23.316;2023-02-15T08:16:53;35.15;;;19.23;;
29196;SDS011;62796;42.654;23.316;2023-02-15T08:24:17;31.60;;;18.90;;
29196;SDS011;62796;42.654;23.316;2023-02-15T08:26:47;31.33;;;18.83;;
29196;SDS011;62796;42.654;23.316;2023-02-15T08:29:14;32.20;;;19.33;;
29196;SDS011;62796;42.654;23.316;2023-02-15T08:31:41;36.55;;;18.88;;
29196;SDS011;62796;42.654;23.316;2023-02-15T08:34:07;41.55;;;21.05;;
29196;SDS011;62796;42.654;23.316;2023-02-15T08:36:35;30.48;;;18.92;;
29196;SDS011;62796;42.654;23.316;2023-02-15T08:39:01;33.85;;;19.48;;
29196;SDS011;62796;42.654;23.316;2023-02-15T08:41:30;33.88;;;19.30;;
29196;SDS011;62796;42.654;23.316;2023-02-15T08:43:58;29.98;;;18.52;;
29196;SDS011;62796;42.654;23.316;2023-02-15T08:46:26;36.85;;;19.73;;
29196;SDS011;62796;42.654;23.316;2023-02-15T08:48:54;32.15;;;19.33;;
29196;SDS011;62796;42.654;23.316;2023-02-15T08:51:21;31.17;;;19.25;;
29196;SDS011;62796;42.654;23.316;2023-02-15T08:53:49;33.63;;;20.23;;
29196;SDS011;62796;42.654;23.316;2023-02-15T08:56:17;33.95;;;19.52;;
29196;SDS011;62796;42.654;23.316;2023-02-15T08:58:44;36.08;;;19.02;;
29196;SDS011;62796;42.654;23.316;2023-02-15T09:01:10;36.67;;;20.13;;
29196;SDS011;62796;42.654;23.316;2023-02-15T09:03:39;37.35;;;19.95;;
29196;SDS011;62796;42.654;23.316;2023-02-15T09:06:05;32.60;;;20.30;;
29196;SDS011;62796;42.654;23.316;2023-02-15T09:08:31;51.25;;;21.25;;
29196;SDS011;62796;42.654;23.316;2023-02-15T09:11:10;33.63;;;19.80;;
29196;SDS011;62796;42.654;23.316;2023-02-15T09:13:41;34.80;;;19.58;;
29196;SDS011;62796;42.654;23.316;2023-02-15T09:16:08;34.70;;;19.80;;
29196;SDS011;62796;42.654;23.316;2023-02-15T09:18:35;32.53;;;18.77;;
29196;SDS011;62796;42.654;23.316;2023-02-15T09:21:06;31.50;;;19.05;;
29196;SDS011;62796;42.654;23.316;2023-02-15T09:23:34;35.47;;;19.80;;
29196;SDS011;62796;42.654;23.316;2023-02-15T09:26:07;95.25;;;23.08;;
29196;SDS011;62796;42.654;23.316;2023-02-15T09:28:34;39.63;;;22.10;;
29196;SDS011;62796;42.654;23.316;2023-02-15T09:33:36;47.03;;;22.08;;
29196;SDS011;62796;42.654;23.316;2023-02-15T09:36:12;39.30;;;21.38;;
29196;SDS011;62796;42.654;23.316;2023-02-15T09:38:43;39.20;;;21.88;;
29196;SDS011;62796;42.654;23.316;2023-02-15T09:54:53;41.45;;;22.48;;
29196;SDS011;62796;42.654;23.316;2023-02-15T10:00:44;34.70;;;20.63;;
29196;SDS011;62796;42.654;23.316;2023-02-15T10:05:54;41.03;;;23.80;;
29196;SDS011;62796;42.654;23.316;2023-02-15T10:17:12;39.35;;;22.95;;
29196;SDS011;62796;42.654;23.316;2023-02-15T10:25:17;37.85;;;22.52;;
29196;SDS011;62796;42.654;23.316;2023-02-15T10:27:38;40.55;;;23.33;;
29196;SDS011;62796;42.654;23.316;2023-02-15T10:30:17;44.38;;;24.20;;
29196;SDS011;62796;42.654;23.316;2023-02-15T10:33:03;43.47;;;23.05;;
29196;SDS011;62796;42.654;23.316;2023-02-15T10:49:17;34.17;;;20.42;;
29196;SDS011;62796;42.654;23.316;2023-02-15T10:54:23;32.70;;;20.05;;
29196;SDS011;62796;42.654;23.316;2023-02-15T10:57:04;33.47;;;20.60;;
29196;SDS011;62796;42.654;23.316;2023-02-15T11:07:54;32.58;;;21.65;;
29196;SDS011;62796;42.654;23.316;2023-02-15T11:12:57;35.88;;;22.50;;
29196;SDS011;62796;42.654;23.316;2023-02-15T11:15:31;38.47;;;22.45;;
29196;SDS011;62796;42.654;23.316;2023-02-15T11:18:11;33.75;;;21.73;;
29196;SDS011;62796;42.654;23.316;2023-02-15T11:21:00;34.05;;;22.17;;
29196;SDS011;62796;42.654;23.316;2023-02-15T11:23:35;31.85;;;21.75;;
29196;SDS011;62796;42.654;23.316;2023-02-15T11:26:08;36.33;;;23.45;;
29196;SDS011;62796;42.654;23.316;2023-02-15T11:28:49;43.38;;;22.85;;
29196;SDS011;62796;42.654;23.316;2023-02-15T11:31:21;30.63;;;21.73;;
29196;SDS011;62796;42.654;23.316;2023-02-15T11:34:10;38.30;;;23.33;;
29196;SDS011;62796;42.654;23.316;2023-02-15T11:36:52;30.48;;;21.88;;
29196;SDS011;62796;42.654;23.316;2023-02-15T11:39:21;39.22;;;23.55;;
29196;SDS011;62796;42.654;23.316;2023-02-15T11:41:49;34.35;;;21.90;;
29196;SDS011;62796;42.654;23.316;2023-02-15T11:46:51;35.83;;;21.38;;
29196;SDS011;62796;42.654;23.316;2023-02-15T11:49:33;32.88;;;21.55;;
29196;SDS011;62796;42.654;23.316;2023-02-15T11:52:05;32.08;;;21.33;;
29196;SDS011;62796;42.654;23.316;2023-02-15T11:54:34;34.65;;;21.70;;
29196;SDS011;62796;42.654;23.316;2023-02-15T11:59:41;32.00;;;21.17;;
29196;SDS011;62796;42.654;23.316;2023-02-15T12:02:16;38.00;;;22.83;;
29196;SDS011;62796;42.654;23.316;2023-02-15T12:04:44;39.67;;;22.63;;
29196;SDS011;62796;42.654;23.316;2023-02-15T12:07:20;40.80;;;23.33;;
29196;SDS011;62796;42.654;23.316;2023-02-15T12:12:29;39.13;;;24.77;;
29196;SDS011;62796;42.654;23.316;2023-02-15T12:14:59;40.95;;;24.00;;
29196;SDS011;62796;42.654;23.316;2023-02-15T12:17:27;35.80;;;25.17;;
29196;SDS011;62796;42.654;23.316;2023-02-15T12:19:56;31.80;;;22.98;;
29196;SDS011;62796;42.654;23.316;2023-02-15T12:22:26;35.08;;;24.23;;
29196;SDS011;62796;42.654;23.316;2023-02-15T12:24:55;34.78;;;23.05;;
29196;SDS011;62796;42.654;23.316;2023-02-15T12:27:24;34.13;;;23.13;;
29196;SDS011;62796;42.654;23.316;2023-02-15T12:29:53;32.95;;;21.95;;
29196;SDS011;62796;42.654;23.316;2023-02-15T12:32:36;36.40;;;23.00;;
29196;SDS011;62796;42.654;23.316;2023-02-15T12:35:14;31.95;;;22.58;;
29196;SDS011;62796;42.654;23.316;2023-02-15T12:37:57;31.83;;;22.23;;
29196;SDS011;62796;42.654;23.316;2023-02-15T12:40:28;36.08;;;21.63;;
29196;SDS011;62796;42.654;23.316;2023-02-15T12:42:55;31.15;;;21.83;;
29196;SDS011;62796;42.654;23.316;2023-02-15T12:45:28;31.23;;;22.75;;
29196;SDS011;62796;42.654;23.316;2023-02-15T12:48:15;37.10;;;23.65;;
29196;SDS011;62796;42.654;23.316;2023-02-15T12:50:43;33.13;;;23.40;;
29196;SDS011;62796;42.654;23.316;2023-02-15T12:55:59;36.50;;;22.52;;
29196;SDS011;62796;42.654;23.316;2023-02-15T12:58:29;34.17;;;23.45;;
29196;SDS011;62796;42.654;23.316;2023-02-15T13:01:15;37.85;;;25.40;;
29196;SDS011;62796;42.654;23.316;2023-02-15T13:04:00;37.95;;;22.85;;
29196;SDS011;62796;42.654;23.316;2023-02-15T13:06:28;38.20;;;22.60;;
29196;SDS011;62796;42.654;23.316;2023-02-15T13:08:58;37.05;;;23.23;;
29196;SDS011;62796;42.654;23.316;2023-02-15T13:11:38;32.45;;;23.88;;
29196;SDS011;62796;42.654;23.316;2023-02-15T13:14:29;34.40;;;23.05;;
29196;SDS011;62796;42.654;23.316;2023-02-15T13:17:00;33.05;;;23.58;;
29196;SDS011;62796;42.654;23.316;2023-02-15T13:22:08;37.47;;;23.98;;
29196;SDS011;62796;42.654;23.316;2023-02-15T13:24:40;32.75;;;23.30;;
29196;SDS011;62796;42.654;23.316;2023-02-15T13:27:12;33.47;;;23.52;;
29196;SDS011;62796;42.654;23.316;2023-02-15T13:29:44;31.75;;;22.75;;
29196;SDS011;62796;42.654;23.316;2023-02-15T13:32:25;35.17;;;22.77;;
29196;SDS011;62796;42.654;23.316;2023-02-15T13:34:52;40.45;;;23.50;;
29196;SDS011;62796;42.654;23.316;2023-02-15T13:37:26;30.98;;;22.55;;
29196;SDS011;62796;42.654;23.316;2023-02-15T13:43:27;32.03;;;22.15;;
29196;SDS011;62796;42.654;23.316;2023-02-15T14:11:06;30.92;;;22.35;;
29196;SDS011;62796;42.654;23.316;2023-02-15T14:16:20;33.33;;;24.10;;
29196;SDS011;62796;42.654;23.316;2023-02-15T14:20:08;34.40;;;25.80;;
29196;SDS011;62796;42.654;23.316;2023-02-15T14:28:05;34.65;;;25.85;;
29196;SDS011;62796;42.654;23.316;2023-02-15T14:30:36;40.17;;;25.05;;
29196;SDS011;62796;42.654;23.316;2023-02-15T14:35:57;42.83;;;25.67;;
29196;SDS011;62796;42.654;23.316;2023-02-15T14:41:17;39.25;;;26.35;;
29196;SDS011;62796;42.654;23.316;2023-02-15T14:46:52;46.20;;;25.60;;
29196;SDS011;62796;42.654;23.316;2023-02-15T14:49:27;37.67;;;24.52;;
29196;SDS011;62796;42.654;23.316;2023-02-15T14:52:09;40.47;;;25.75;;
29196;SDS011;62796;42.654;23.316;2023-02-15T14:59:35;36.45;;;25.20;;
29196;SDS011;62796;42.654;23.316;2023-02-15T15:07:18;35.37;;;24.47;;
29196;SDS011;62796;42.654;23.316;2023-02-15T15:09:48;50.78;;;27.17;;
29196;SDS011;62796;42.654;23.316;2023-02-15T15:14:50;40.95;;;27.45;;
29196;SDS011;62796;42.654;23.316;2023-02-15T15:28:52;43.97;;;28.02;;
29196;SDS011;62796;42.654;23.316;2023-02-15T15:31:10;48.47;;;26.55;;
29196;SDS011;62796;42.654;23.316;2023-02-15T15:47:36;55.28;;;28.55;;
29196;SDS011;62796;42.654;23.316;2023-02-15T15:52:41;53.22;;;27.30;;
29196;SDS011;62796;42.654;23.316;2023-02-15T15:55:18;49.35;;;28.48;;
29196;SDS011;62796;42.654;23.316;2023-02-15T15:57:48;56.05;;;29.00;;
29196;SDS011;62796;42.654;23.316;2023-02-15T16:03:13;49.42;;;29.50;;
29196;SDS011;62796;42.654;23.316;2023-02-15T16:05:41;62.63;;;32.55;;
29196;SDS011;62796;42.654;23.316;2023-02-15T16:08:06;61.90;;;33.42;;
29196;SDS011;62796;42.654;23.316;2023-02-15T16:10:32;64.10;;;35.35;;
29196;SDS011;62796;42.654;23.316;2023-02-15T16:13:00;65.03;;;34.33;;
29196;SDS011;62796;42.654;23.316;2023-02-15T16:18:17;56.55;;;32.97;;
29196;SDS011;62796;42.654;23.316;2023-02-15T16:20:49;58.20;;;32.85;;
29196;SDS011;62796;42.654;23.316;2023-02-15T16:28:55;59.72;;;33.03;;
29196;SDS011;62796;42.654;23.316;2023-02-15T16:31:21;57.85;;;32.38;;
29196;SDS011;62796;42.654;23.316;2023-02-15T16:33:47;67.72;;;32.78;;
29196;SDS011;62796;42.654;23.316;2023-02-15T16:36:20;62.53;;;34.38;;
29196;SDS011;62796;42.654;23.316;2023-02-15T16:41:22;55.58;;;31.50;;
29196;SDS011;62796;42.654;23.316;2023-02-15T16:43:50;62.90;;;31.75;;
29196;SDS011;62796;42.654;23.316;2023-02-15T16:46:30;66.85;;;32.63;;
29196;SDS011;62796;42.654;23.316;2023-02-15T16:48:59;66.82;;;33.33;;
29196;SDS011;62796;42.654;23.316;2023-02-15T16:51:30;59.88;;;31.77;;
29196;SDS011;62796;42.654;23.316;2023-02-15T16:54:00;60.92;;;31.42;;
29196;SDS011;62796;42.654;23.316;2023-02-15T16:56:30;66.88;;;32.40;;
29196;SDS011;62796;42.654;23.316;2023-02-15T16:58:56;60.47;;;33.10;;
29196;SDS011;62796;42.654;23.316;2023-02-15T17:01:23;66.95;;;33.78;;
29196;SDS011;62796;42.654;23.316;2023-02-15T17:04:10;73.45;;;36.25;;
29196;SDS011;62796;42.654;23.316;2023-02-15T17:06:37;59.05;;;33.00;;
29196;SDS011;62796;42.654;23.316;2023-02-15T17:09:03;58.75;;;34.90;;
29196;SDS011;62796;42.654;23.316;2023-02-15T17:11:35;69.65;;;35.63;;
29196;SDS011;62796;42.654;23.316;2023-02-15T17:19:14;112.13;;;50.53;;
29196;SDS011;62796;42.654;23.316;2023-02-15T17:21:55;81.80;;;40.45;;
29196;SDS011;62796;42.654;23.316;2023-02-15T17:24:31;60.55;;;34.30;;
29196;SDS011;62796;42.654;23.316;2023-02-15T17:27:02;66.63;;;35.47;;
29196;SDS011;62796;42.654;23.316;2023-02-15T17:29:32;86.82;;;38.97;;
29196;SDS011;62796;42.654;23.316;2023-02-15T17:31:59;77.75;;;42.97;;
29196;SDS011;62796;42.654;23.316;2023-02-15T17:37:10;80.55;;;43.95;;
29196;SDS011;62796;42.654;23.316;2023-02-15T17:39:38;89.53;;;42.88;;
29196;SDS011;62796;42.654;23.316;2023-02-15T17:42:05;71.57;;;41.33;;
29196;SDS011;62796;42.654;23.316;2023-02-15T17:44:31;79.22;;;41.42;;
29196;SDS011;62796;42.654;23.316;2023-02-15T17:46:56;80.60;;;45.25;;
29196;SDS011;62796;42.654;23.316;2023-02-15T17:49:23;76.88;;;41.58;;
29196;SDS011;62796;42.654;23.316;2023-02-15T17:51:53;104.28;;;50.88;;
29196;SDS011;62796;42.654;23.316;2023-02-15T17:54:18;102.60;;;49.70;;
29196;SDS011;62796;42.654;23.316;2023-02-15T17:57:02;96.47;;;45.73;;
29196;SDS011;62796;42.654;23.316;2023-02-15T17:59:30;85.10;;;44.45;;
29196;SDS011;62796;42.654;23.316;2023-02-15T18:01:56;80.68;;;43.03;;
29196;SDS011;62796;42.654;23.316;2023-02-15T18:04:40;81.75;;;41.42;;
29196;SDS011;62796;42.654;23.316;2023-02-15T18:07:24;80.45;;;41.55;;
29196;SDS011;62796;42.654;23.316;2023-02-15T18:10:15;78.88;;;38.50;;
29196;SDS011;62796;42.654;23.316;2023-02-15T18:13:02;76.22;;;38.78;;
29196;SDS011;62796;42.654;23.316;2023-02-15T18:15:28;70.68;;;37.45;;
29196;SDS011;62796;42.654;23.316;2023-02-15T18:17:54;77.38;;;38.08;;